sensor_id;sensor_type;location;lat;lon;timestamp;P1;durP1;ratioP1;P2;durP2;ratioP2
16634;SDS011;8431;52.458;9.998;2023-07-31T00:00:17;10.18;;;9.45;;
16634;SDS011;8431;52.458;9.998;2023-07-31T00:02:44;10.95;;;9.48;;
16634;SDS011;8431;52.458;9.998;2023-07-31T00:05:10;10.60;;;8.98;;
16634;SDS011;8431;52.458;9.998;2023-07-31T00:07:51;9.35;;;8.50;;
16634;SDS011;8431;52.458;9.998;2023-07-31T00:10:19;9.30;;;8.60;;
16634;SDS011;8431;52.458;9.998;2023-07-31T00:12:46;11.95;;;9.18;;
16634;SDS011;8431;52.458;9.998;2023-07-31T00:15:16;9.00;;;8.35;;
16634;SDS011;8431;52.458;9.998;2023-07-31T00:17:43;9.57;;;8.68;;
16634;SDS011;8431;52.458;9.998;2023-07-31T00:20:10;9.55;;;8.63;;
16634;SDS011;8431;52.458;9.998;2023-07-31T00:22:40;9.43;;;8.77;;
16634;SDS011;8431;52.458;9.998;2023-07-31T00:25:10;9.32;;;8.63;;
16634;SDS011;8431;52.458;9.998;2023-07-31T00:27:37;10.48;;;8.98;;
16634;SDS011;8431;52.458;9.998;2023-07-31T00:30:15;9.68;;;8.85;;
16634;SDS011;8431;52.458;9.998;2023-07-31T00:32:43;9.50;;;8.68;;
16634;SDS011;8431;52.458;9.998;2023-07-31T00:35:10;9.75;;;8.45;;
16634;SDS011;8431;52.458;9.998;2023-07-31T00:37:45;8.55;;;7.72;;
16634;SDS011;8431;52.458;9.998;2023-07-31T00:40:14;8.95;;;8.10;;
16634;SDS011;8431;52.458;9.998;2023-07-31T00:42:44;9.32;;;7.88;;
16634;SDS011;8431;52.458;9.998;2023-07-31T00:45:11;10.25;;;8.23;;
16634;SDS011;8431;52.458;9.998;2023-07-31T00:47:38;10.50;;;8.77;;
16634;SDS011;8431;52.458;9.998;2023-07-31T00:50:06;8.32;;;7.68;;
16634;SDS011;8431;52.458;9.998;2023-07-31T00:52:36;8.45;;;7.70;;
16634;SDS011;8431;52.458;9.998;2023-07-31T00:55:03;8.88;;;8.00;;
16634;SDS011;8431;52.458;9.998;2023-07-31T00:57:33;10.73;;;7.95;;
16634;SDS011;8431;52.458;9.998;2023-07-31T01:00:04;8.75;;;7.93;;
16634;SDS011;8431;52.458;9.998;2023-07-31T01:02:36;10.52;;;7.57;;
16634;SDS011;8431;52.458;9.998;2023-07-31T01:05:07;8.55;;;7.80;;
16634;SDS011;8431;52.458;9.998;2023-07-31T01:07:35;10.70;;;7.70;;
16634;SDS011;8431;52.458;9.998;2023-07-31T01:10:11;7.70;;;7.20;;
16634;SDS011;8431;52.458;9.998;2023-07-31T01:12:47;8.30;;;7.25;;
16634;SDS011;8431;52.458;9.998;2023-07-31T01:15:14;9.45;;;7.57;;
16634;SDS011;8431;52.458;9.998;2023-07-31T01:17:43;9.18;;;8.07;;
16634;SDS011;8431;52.458;9.998;2023-07-31T01:20:11;8.63;;;7.63;;
16634;SDS011;8431;52.458;9.998;2023-07-31T01:25:56;7.97;;;7.18;;
16634;SDS011;8431;52.458;9.998;2023-07-31T01:28:27;8.27;;;7.55;;
16634;SDS011;8431;52.458;9.998;2023-07-31T01:31:03;7.93;;;7.22;;
16634;SDS011;8431;52.458;9.998;2023-07-31T01:33:33;7.78;;;6.97;;
16634;SDS011;8431;52.458;9.998;2023-07-31T01:36:02;8.57;;;7.18;;
16634;SDS011;8431;52.458;9.998;2023-07-31T01:38:30;8.80;;;7.18;;
16634;SDS011;8431;52.458;9.998;2023-07-31T01:40:59;8.32;;;7.72;;
16634;SDS011;8431;52.458;9.998;2023-07-31T01:43:26;8.23;;;7.43;;
16634;SDS011;8431;52.458;9.998;2023-07-31T01:45:53;8.38;;;7.60;;
16634;SDS011;8431;52.458;9.998;2023-07-31T01:48:20;8.15;;;7.32;;
16634;SDS011;8431;52.458;9.998;2023-07-31T01:50:47;9.45;;;6.82;;
16634;SDS011;8431;52.458;9.998;2023-07-31T01:53:14;7.93;;;7.20;;
16634;SDS011;8431;52.458;9.998;2023-07-31T01:55:41;8.32;;;7.53;;
16634;SDS011;8431;52.458;9.998;2023-07-31T01:58:09;8.23;;;6.90;;
16634;SDS011;8431;52.458;9.998;2023-07-31T02:00:36;7.65;;;7.05;;
16634;SDS011;8431;52.458;9.998;2023-07-31T02:03:03;7.63;;;7.13;;
16634;SDS011;8431;52.458;9.998;2023-07-31T02:05:30;7.93;;;7.20;;
16634;SDS011;8431;52.458;9.998;2023-07-31T02:07:57;7.57;;;6.85;;
16634;SDS011;8431;52.458;9.998;2023-07-31T02:10:24;7.82;;;6.88;;
16634;SDS011;8431;52.458;9.998;2023-07-31T02:12:51;7.57;;;6.82;;
16634;SDS011;8431;52.458;9.998;2023-07-31T02:15:19;7.82;;;7.10;;
16634;SDS011;8431;52.458;9.998;2023-07-31T02:17:46;7.88;;;7.38;;
16634;SDS011;8431;52.458;9.998;2023-07-31T02:20:13;8.10;;;7.38;;
16634;SDS011;8431;52.458;9.998;2023-07-31T02:22:40;7.45;;;6.88;;
16634;SDS011;8431;52.458;9.998;2023-07-31T02:25:08;8.50;;;7.25;;
16634;SDS011;8431;52.458;9.998;2023-07-31T02:27:35;8.27;;;7.03;;
16634;SDS011;8431;52.458;9.998;2023-07-31T02:30:02;7.28;;;6.65;;
16634;SDS011;8431;52.458;9.998;2023-07-31T02:32:30;6.40;;;6.00;;
16634;SDS011;8431;52.458;9.998;2023-07-31T02:34:57;6.65;;;6.15;;
16634;SDS011;8431;52.458;9.998;2023-07-31T02:37:24;7.45;;;6.15;;
16634;SDS011;8431;52.458;9.998;2023-07-31T02:39:56;6.35;;;6.05;;
16634;SDS011;8431;52.458;9.998;2023-07-31T02:42:24;8.15;;;5.78;;
16634;SDS011;8431;52.458;9.998;2023-07-31T02:44:51;6.78;;;6.28;;
16634;SDS011;8431;52.458;9.998;2023-07-31T02:47:20;6.57;;;6.03;;
16634;SDS011;8431;52.458;9.998;2023-07-31T02:49:49;5.78;;;5.40;;
16634;SDS011;8431;52.458;9.998;2023-07-31T02:52:16;6.30;;;5.90;;
16634;SDS011;8431;52.458;9.998;2023-07-31T02:54:43;8.10;;;6.35;;
16634;SDS011;8431;52.458;9.998;2023-07-31T02:57:10;6.20;;;5.70;;
16634;SDS011;8431;52.458;9.998;2023-07-31T02:59:37;6.05;;;5.57;;
16634;SDS011;8431;52.458;9.998;2023-07-31T03:02:04;6.70;;;6.30;;
16634;SDS011;8431;52.458;9.998;2023-07-31T03:04:31;6.90;;;5.90;;
16634;SDS011;8431;52.458;9.998;2023-07-31T03:06:59;6.22;;;5.88;;
16634;SDS011;8431;52.458;9.998;2023-07-31T03:09:26;5.75;;;5.35;;
16634;SDS011;8431;52.458;9.998;2023-07-31T03:11:53;5.72;;;5.32;;
16634;SDS011;8431;52.458;9.998;2023-07-31T03:14:20;6.13;;;5.72;;
16634;SDS011;8431;52.458;9.998;2023-07-31T03:16:47;6.45;;;5.93;;
16634;SDS011;8431;52.458;9.998;2023-07-31T03:19:14;5.63;;;5.22;;
16634;SDS011;8431;52.458;9.998;2023-07-31T03:21:41;5.80;;;5.60;;
16634;SDS011;8431;52.458;9.998;2023-07-31T03:24:09;5.70;;;5.20;;
16634;SDS011;8431;52.458;9.998;2023-07-31T03:26:40;6.20;;;5.70;;
16634;SDS011;8431;52.458;9.998;2023-07-31T03:29:07;6.03;;;5.50;;
16634;SDS011;8431;52.458;9.998;2023-07-31T03:31:34;5.72;;;5.47;;
16634;SDS011;8431;52.458;9.998;2023-07-31T03:34:01;5.75;;;5.07;;
16634;SDS011;8431;52.458;9.998;2023-07-31T03:36:28;5.63;;;5.30;;
16634;SDS011;8431;52.458;9.998;2023-07-31T03:38:55;5.93;;;5.43;;
16634;SDS011;8431;52.458;9.998;2023-07-31T03:41:23;5.90;;;5.50;;
16634;SDS011;8431;52.458;9.998;2023-07-31T03:43:50;5.90;;;5.57;;
16634;SDS011;8431;52.458;9.998;2023-07-31T03:46:18;6.13;;;5.72;;
16634;SDS011;8431;52.458;9.998;2023-07-31T03:48:45;6.38;;;5.82;;
16634;SDS011;8431;52.458;9.998;2023-07-31T03:51:12;6.10;;;5.80;;
16634;SDS011;8431;52.458;9.998;2023-07-31T03:53:39;5.97;;;5.50;;
16634;SDS011;8431;52.458;9.998;2023-07-31T03:56:06;5.75;;;5.35;;
16634;SDS011;8431;52.458;9.998;2023-07-31T03:58:34;6.13;;;5.80;;
16634;SDS011;8431;52.458;9.998;2023-07-31T04:01:02;6.63;;;6.03;;
16634;SDS011;8431;52.458;9.998;2023-07-31T04:03:29;6.15;;;5.78;;
16634;SDS011;8431;52.458;9.998;2023-07-31T04:05:56;5.93;;;5.55;;
16634;SDS011;8431;52.458;9.998;2023-07-31T04:08:23;6.22;;;5.78;;
16634;SDS011;8431;52.458;9.998;2023-07-31T04:10:59;6.38;;;5.88;;
16634;SDS011;8431;52.458;9.998;2023-07-31T04:13:26;8.23;;;5.50;;
16634;SDS011;8431;52.458;9.998;2023-07-31T04:15:56;5.75;;;5.38;;
16634;SDS011;8431;52.458;9.998;2023-07-31T04:18:24;6.55;;;5.85;;
16634;SDS011;8431;52.458;9.998;2023-07-31T04:20:51;5.90;;;5.60;;
16634;SDS011;8431;52.458;9.998;2023-07-31T04:23:18;5.75;;;5.53;;
16634;SDS011;8431;52.458;9.998;2023-07-31T04:25:45;6.65;;;6.20;;
16634;SDS011;8431;52.458;9.998;2023-07-31T04:28:12;6.80;;;6.40;;
16634;SDS011;8431;52.458;9.998;2023-07-31T04:30:39;6.53;;;6.00;;
16634;SDS011;8431;52.458;9.998;2023-07-31T04:33:07;7.18;;;6.63;;
16634;SDS011;8431;52.458;9.998;2023-07-31T04:35:34;6.75;;;6.35;;
16634;SDS011;8431;52.458;9.998;2023-07-31T04:38:01;7.13;;;6.80;;
16634;SDS011;8431;52.458;9.998;2023-07-31T04:40:28;6.93;;;6.50;;
16634;SDS011;8431;52.458;9.998;2023-07-31T04:42:55;6.75;;;6.35;;
16634;SDS011;8431;52.458;9.998;2023-07-31T04:45:22;6.65;;;6.32;;
16634;SDS011;8431;52.458;9.998;2023-07-31T04:47:49;6.78;;;6.22;;
16634;SDS011;8431;52.458;9.998;2023-07-31T04:50:17;6.93;;;6.63;;
16634;SDS011;8431;52.458;9.998;2023-07-31T04:52:44;6.28;;;5.97;;
16634;SDS011;8431;52.458;9.998;2023-07-31T04:55:14;7.03;;;6.35;;
16634;SDS011;8431;52.458;9.998;2023-07-31T04:57:41;6.88;;;6.40;;
16634;SDS011;8431;52.458;9.998;2023-07-31T05:00:09;7.25;;;6.72;;
16634;SDS011;8431;52.458;9.998;2023-07-31T05:02:36;7.32;;;6.70;;
16634;SDS011;8431;52.458;9.998;2023-07-31T05:05:03;7.00;;;6.35;;
16634;SDS011;8431;52.458;9.998;2023-07-31T05:07:32;7.32;;;6.93;;
16634;SDS011;8431;52.458;9.998;2023-07-31T05:09:59;7.22;;;6.68;;
16634;SDS011;8431;52.458;9.998;2023-07-31T05:12:26;7.53;;;7.13;;
16634;SDS011;8431;52.458;9.998;2023-07-31T05:14:53;7.50;;;7.00;;
16634;SDS011;8431;52.458;9.998;2023-07-31T05:17:20;7.63;;;7.22;;
16634;SDS011;8431;52.458;9.998;2023-07-31T05:19:46;8.27;;;7.50;;
16634;SDS011;8431;52.458;9.998;2023-07-31T05:22:13;7.15;;;6.75;;
16634;SDS011;8431;52.458;9.998;2023-07-31T05:24:42;6.85;;;6.50;;
16634;SDS011;8431;52.458;9.998;2023-07-31T05:27:09;7.00;;;6.70;;
16634;SDS011;8431;52.458;9.998;2023-07-31T05:29:36;7.30;;;6.90;;
16634;SDS011;8431;52.458;9.998;2023-07-31T05:32:03;7.32;;;7.03;;
16634;SDS011;8431;52.458;9.998;2023-07-31T05:34:30;12.50;;;11.90;;
16634;SDS011;8431;52.458;9.998;2023-07-31T05:36:57;13.43;;;12.80;;
16634;SDS011;8431;52.458;9.998;2023-07-31T05:39:24;13.43;;;12.82;;
16634;SDS011;8431;52.458;9.998;2023-07-31T05:41:52;12.50;;;12.00;;
16634;SDS011;8431;52.458;9.998;2023-07-31T05:44:19;11.38;;;10.80;;
16634;SDS011;8431;52.458;9.998;2023-07-31T05:46:46;11.02;;;10.43;;
16634;SDS011;8431;52.458;9.998;2023-07-31T05:49:13;10.82;;;10.23;;
16634;SDS011;8431;52.458;9.998;2023-07-31T05:51:40;10.25;;;9.85;;
16634;SDS011;8431;52.458;9.998;2023-07-31T05:54:07;10.65;;;10.15;;
16634;SDS011;8431;52.458;9.998;2023-07-31T05:56:34;10.63;;;10.02;;
16634;SDS011;8431;52.458;9.998;2023-07-31T05:59:02;10.50;;;10.00;;
16634;SDS011;8431;52.458;9.998;2023-07-31T06:01:30;11.52;;;10.90;;
16634;SDS011;8431;52.458;9.998;2023-07-31T06:03:57;11.32;;;10.63;;
16634;SDS011;8431;52.458;9.998;2023-07-31T06:06:24;11.88;;;11.10;;
16634;SDS011;8431;52.458;9.998;2023-07-31T06:08:51;12.07;;;11.27;;
16634;SDS011;8431;52.458;9.998;2023-07-31T06:11:18;12.95;;;12.05;;
16634;SDS011;8431;52.458;9.998;2023-07-31T06:13:46;12.00;;;11.20;;
16634;SDS011;8431;52.458;9.998;2023-07-31T06:16:15;12.95;;;12.15;;
16634;SDS011;8431;52.458;9.998;2023-07-31T06:18:42;11.85;;;11.05;;
16634;SDS011;8431;52.458;9.998;2023-07-31T06:21:09;13.68;;;12.77;;
16634;SDS011;8431;52.458;9.998;2023-07-31T06:23:37;12.80;;;11.90;;
16634;SDS011;8431;52.458;9.998;2023-07-31T06:26:04;12.63;;;11.82;;
16634;SDS011;8431;52.458;9.998;2023-07-31T06:28:31;13.30;;;12.40;;
16634;SDS011;8431;52.458;9.998;2023-07-31T06:30:58;13.43;;;12.52;;
16634;SDS011;8431;52.458;9.998;2023-07-31T06:33:27;14.52;;;13.35;;
16634;SDS011;8431;52.458;9.998;2023-07-31T06:35:54;12.63;;;11.68;;
16634;SDS011;8431;52.458;9.998;2023-07-31T06:38:22;15.05;;;14.00;;
16634;SDS011;8431;52.458;9.998;2023-07-31T06:40:50;15.43;;;14.15;;
16634;SDS011;8431;52.458;9.998;2023-07-31T06:43:18;15.70;;;14.68;;
16634;SDS011;8431;52.458;9.998;2023-07-31T06:45:45;15.30;;;14.15;;
16634;SDS011;8431;52.458;9.998;2023-07-31T06:48:13;15.60;;;14.10;;
16634;SDS011;8431;52.458;9.998;2023-07-31T06:50:41;16.35;;;14.98;;
16634;SDS011;8431;52.458;9.998;2023-07-31T06:53:08;15.48;;;14.38;;
16634;SDS011;8431;52.458;9.998;2023-07-31T06:55:35;15.95;;;14.55;;
16634;SDS011;8431;52.458;9.998;2023-07-31T06:58:02;16.45;;;14.80;;
16634;SDS011;8431;52.458;9.998;2023-07-31T07:00:29;14.32;;;13.05;;
16634;SDS011;8431;52.458;9.998;2023-07-31T07:02:57;18.98;;;14.70;;
16634;SDS011;8431;52.458;9.998;2023-07-31T07:05:24;17.02;;;15.63;;
16634;SDS011;8431;52.458;9.998;2023-07-31T07:07:52;17.00;;;15.25;;
16634;SDS011;8431;52.458;9.998;2023-07-31T07:10:19;17.25;;;15.55;;
16634;SDS011;8431;52.458;9.998;2023-07-31T07:12:46;16.70;;;15.15;;
16634;SDS011;8431;52.458;9.998;2023-07-31T07:15:13;17.40;;;15.90;;
16634;SDS011;8431;52.458;9.998;2023-07-31T07:17:41;16.77;;;15.30;;
16634;SDS011;8431;52.458;9.998;2023-07-31T07:20:09;15.50;;;14.23;;
16634;SDS011;8431;52.458;9.998;2023-07-31T07:27:46;16.80;;;15.35;;
16634;SDS011;8431;52.458;9.998;2023-07-31T07:30:13;17.35;;;15.70;;
16634;SDS011;8431;52.458;9.998;2023-07-31T07:32:40;16.00;;;14.60;;
16634;SDS011;8431;52.458;9.998;2023-07-31T07:35:07;15.55;;;14.07;;
16634;SDS011;8431;52.458;9.998;2023-07-31T07:37:34;17.52;;;15.75;;
16634;SDS011;8431;52.458;9.998;2023-07-31T07:40:01;17.33;;;15.73;;
16634;SDS011;8431;52.458;9.998;2023-07-31T07:42:30;18.30;;;15.93;;
16634;SDS011;8431;52.458;9.998;2023-07-31T07:44:57;16.35;;;14.38;;
16634;SDS011;8431;52.458;9.998;2023-07-31T07:47:24;18.80;;;16.33;;
16634;SDS011;8431;52.458;9.998;2023-07-31T07:49:51;17.38;;;14.45;;
16634;SDS011;8431;52.458;9.998;2023-07-31T07:52:21;17.77;;;15.48;;
16634;SDS011;8431;52.458;9.998;2023-07-31T07:54:48;16.48;;;14.73;;
16634;SDS011;8431;52.458;9.998;2023-07-31T07:57:15;15.63;;;14.13;;
16634;SDS011;8431;52.458;9.998;2023-07-31T07:59:43;16.30;;;14.70;;
16634;SDS011;8431;52.458;9.998;2023-07-31T08:02:10;15.88;;;14.38;;
16634;SDS011;8431;52.458;9.998;2023-07-31T08:04:37;15.68;;;14.27;;
16634;SDS011;8431;52.458;9.998;2023-07-31T08:07:04;16.27;;;14.50;;
16634;SDS011;8431;52.458;9.998;2023-07-31T08:09:31;16.08;;;14.55;;
16634;SDS011;8431;52.458;9.998;2023-07-31T08:11:58;15.35;;;14.25;;
16634;SDS011;8431;52.458;9.998;2023-07-31T08:14:27;16.35;;;14.75;;
16634;SDS011;8431;52.458;9.998;2023-07-31T08:16:56;15.85;;;14.27;;
16634;SDS011;8431;52.458;9.998;2023-07-31T08:19:23;16.15;;;14.70;;
16634;SDS011;8431;52.458;9.998;2023-07-31T08:21:50;15.25;;;13.65;;
16634;SDS011;8431;52.458;9.998;2023-07-31T08:24:17;15.25;;;13.38;;
16634;SDS011;8431;52.458;9.998;2023-07-31T08:26:44;14.55;;;13.25;;
16634;SDS011;8431;52.458;9.998;2023-07-31T08:29:11;15.57;;;13.02;;
16634;SDS011;8431;52.458;9.998;2023-07-31T08:31:38;15.05;;;13.70;;
16634;SDS011;8431;52.458;9.998;2023-07-31T08:34:06;14.75;;;13.15;;
16634;SDS011;8431;52.458;9.998;2023-07-31T08:36:33;15.98;;;14.38;;
16634;SDS011;8431;52.458;9.998;2023-07-31T08:39:00;14.25;;;12.85;;
16634;SDS011;8431;52.458;9.998;2023-07-31T08:41:27;14.38;;;12.48;;
16634;SDS011;8431;52.458;9.998;2023-07-31T08:43:54;13.48;;;12.18;;
16634;SDS011;8431;52.458;9.998;2023-07-31T08:46:22;14.02;;;12.57;;
16634;SDS011;8431;52.458;9.998;2023-07-31T08:48:50;14.35;;;13.07;;
16634;SDS011;8431;52.458;9.998;2023-07-31T08:51:20;14.15;;;12.75;;
16634;SDS011;8431;52.458;9.998;2023-07-31T08:53:50;12.65;;;11.57;;
16634;SDS011;8431;52.458;9.998;2023-07-31T08:56:18;13.27;;;11.90;;
16634;SDS011;8431;52.458;9.998;2023-07-31T08:58:46;12.23;;;11.13;;
16634;SDS011;8431;52.458;9.998;2023-07-31T09:01:13;11.32;;;10.35;;
16634;SDS011;8431;52.458;9.998;2023-07-31T09:03:41;12.20;;;10.90;;
16634;SDS011;8431;52.458;9.998;2023-07-31T09:06:09;12.65;;;10.95;;
16634;SDS011;8431;52.458;9.998;2023-07-31T09:08:40;12.77;;;11.60;;
16634;SDS011;8431;52.458;9.998;2023-07-31T09:11:08;11.93;;;11.00;;
16634;SDS011;8431;52.458;9.998;2023-07-31T09:13:35;13.55;;;12.25;;
16634;SDS011;8431;52.458;9.998;2023-07-31T09:16:07;11.85;;;10.75;;
16634;SDS011;8431;52.458;9.998;2023-07-31T09:18:38;13.25;;;11.88;;
16634;SDS011;8431;52.458;9.998;2023-07-31T09:21:19;12.80;;;11.55;;
16634;SDS011;8431;52.458;9.998;2023-07-31T09:23:47;14.02;;;12.30;;
16634;SDS011;8431;52.458;9.998;2023-07-31T09:26:28;17.60;;;12.23;;
16634;SDS011;8431;52.458;9.998;2023-07-31T09:28:56;14.13;;;12.20;;
16634;SDS011;8431;52.458;9.998;2023-07-31T09:31:31;12.30;;;11.30;;
16634;SDS011;8431;52.458;9.998;2023-07-31T09:33:59;12.05;;;10.88;;
16634;SDS011;8431;52.458;9.998;2023-07-31T09:36:28;11.48;;;10.52;;
16634;SDS011;8431;52.458;9.998;2023-07-31T09:44:25;12.10;;;11.15;;
16634;SDS011;8431;52.458;9.998;2023-07-31T09:49:55;11.95;;;11.15;;
16634;SDS011;8431;52.458;9.998;2023-07-31T09:52:22;11.45;;;10.32;;
16634;SDS011;8431;52.458;9.998;2023-07-31T09:54:52;12.32;;;11.18;;
16634;SDS011;8431;52.458;9.998;2023-07-31T09:57:21;11.38;;;10.48;;
16634;SDS011;8431;52.458;9.998;2023-07-31T10:00:08;9.63;;;8.80;;
16634;SDS011;8431;52.458;9.998;2023-07-31T10:02:58;10.77;;;9.88;;
16634;SDS011;8431;52.458;9.998;2023-07-31T10:06:10;10.38;;;9.43;;
16634;SDS011;8431;52.458;9.998;2023-07-31T10:12:43;9.00;;;8.43;;
16634;SDS011;8431;52.458;9.998;2023-07-31T10:18:55;8.77;;;8.18;;
16634;SDS011;8431;52.458;9.998;2023-07-31T10:25:21;8.23;;;7.68;;
16634;SDS011;8431;52.458;9.998;2023-07-31T10:28:18;7.75;;;7.15;;
16634;SDS011;8431;52.458;9.998;2023-07-31T10:34:50;8.00;;;7.30;;
16634;SDS011;8431;52.458;9.998;2023-07-31T10:37:24;8.50;;;7.70;;
16634;SDS011;8431;52.458;9.998;2023-07-31T10:40:10;8.40;;;8.00;;
16634;SDS011;8431;52.458;9.998;2023-07-31T10:42:45;9.23;;;8.68;;
16634;SDS011;8431;52.458;9.998;2023-07-31T10:45:23;9.32;;;8.93;;
16634;SDS011;8431;52.458;9.998;2023-07-31T10:48:05;10.82;;;10.02;;
16634;SDS011;8431;52.458;9.998;2023-07-31T10:50:36;10.57;;;9.88;;
16634;SDS011;8431;52.458;9.998;2023-07-31T10:53:04;9.27;;;8.85;;
16634;SDS011;8431;52.458;9.998;2023-07-31T10:55:32;10.20;;;9.70;;
16634;SDS011;8431;52.458;9.998;2023-07-31T10:58:05;10.18;;;9.68;;
16634;SDS011;8431;52.458;9.998;2023-07-31T11:03:08;9.68;;;9.18;;
16634;SDS011;8431;52.458;9.998;2023-07-31T11:05:50;9.00;;;8.60;;
16634;SDS011;8431;52.458;9.998;2023-07-31T11:08:20;9.48;;;8.93;;
16634;SDS011;8431;52.458;9.998;2023-07-31T11:10:49;9.93;;;9.43;;
16634;SDS011;8431;52.458;9.998;2023-07-31T11:13:30;8.68;;;8.27;;
16634;SDS011;8431;52.458;9.998;2023-07-31T11:16:01;8.90;;;8.40;;
16634;SDS011;8431;52.458;9.998;2023-07-31T11:18:29;9.05;;;8.55;;
16634;SDS011;8431;52.458;9.998;2023-07-31T11:20:56;8.30;;;7.90;;
16634;SDS011;8431;52.458;9.998;2023-07-31T11:23:23;9.10;;;8.55;;
16634;SDS011;8431;52.458;9.998;2023-07-31T11:25:50;9.07;;;8.68;;
16634;SDS011;8431;52.458;9.998;2023-07-31T11:28:18;8.07;;;7.75;;
16634;SDS011;8431;52.458;9.998;2023-07-31T11:30:46;7.80;;;7.28;;
16634;SDS011;8431;52.458;9.998;2023-07-31T11:33:15;9.05;;;8.55;;
16634;SDS011;8431;52.458;9.998;2023-07-31T11:35:43;8.10;;;7.72;;
16634;SDS011;8431;52.458;9.998;2023-07-31T11:38:11;8.25;;;7.75;;
16634;SDS011;8431;52.458;9.998;2023-07-31T11:40:41;8.82;;;8.43;;
16634;SDS011;8431;52.458;9.998;2023-07-31T11:43:08;7.10;;;6.80;;
16634;SDS011;8431;52.458;9.998;2023-07-31T11:45:36;8.23;;;7.72;;
16634;SDS011;8431;52.458;9.998;2023-07-31T11:48:05;9.20;;;8.60;;
16634;SDS011;8431;52.458;9.998;2023-07-31T11:50:35;8.50;;;8.00;;
16634;SDS011;8431;52.458;9.998;2023-07-31T11:53:03;8.30;;;7.90;;
16634;SDS011;8431;52.458;9.998;2023-07-31T11:55:34;7.72;;;7.43;;
16634;SDS011;8431;52.458;9.998;2023-07-31T11:58:01;9.45;;;8.98;;
16634;SDS011;8431;52.458;9.998;2023-07-31T12:00:29;8.55;;;8.15;;
16634;SDS011;8431;52.458;9.998;2023-07-31T12:02:56;8.80;;;8.20;;
16634;SDS011;8431;52.458;9.998;2023-07-31T12:05:23;9.18;;;8.68;;
16634;SDS011;8431;52.458;9.998;2023-07-31T12:07:52;9.10;;;8.63;;
16634;SDS011;8431;52.458;9.998;2023-07-31T12:10:24;9.35;;;8.88;;
16634;SDS011;8431;52.458;9.998;2023-07-31T12:13:02;8.38;;;7.97;;
16634;SDS011;8431;52.458;9.998;2023-07-31T12:15:33;9.15;;;8.68;;
16634;SDS011;8431;52.458;9.998;2023-07-31T12:18:03;8.55;;;8.07;;
16634;SDS011;8431;52.458;9.998;2023-07-31T12:20:31;8.88;;;8.48;;
16634;SDS011;8431;52.458;9.998;2023-07-31T12:23:00;8.00;;;7.60;;
16634;SDS011;8431;52.458;9.998;2023-07-31T12:25:31;7.63;;;7.05;;
16634;SDS011;8431;52.458;9.998;2023-07-31T12:28:03;7.88;;;7.28;;
16634;SDS011;8431;52.458;9.998;2023-07-31T12:30:32;8.20;;;7.80;;
16634;SDS011;8431;52.458;9.998;2023-07-31T12:33:03;7.78;;;7.28;;
16634;SDS011;8431;52.458;9.998;2023-07-31T12:35:35;7.57;;;7.20;;
16634;SDS011;8431;52.458;9.998;2023-07-31T12:38:08;6.65;;;6.35;;
16634;SDS011;8431;52.458;9.998;2023-07-31T12:40:36;6.55;;;6.05;;
16634;SDS011;8431;52.458;9.998;2023-07-31T12:43:03;7.75;;;7.15;;
16634;SDS011;8431;52.458;9.998;2023-07-31T12:45:30;7.35;;;7.00;;
16634;SDS011;8431;52.458;9.998;2023-07-31T12:47:57;7.35;;;6.65;;
16634;SDS011;8431;52.458;9.998;2023-07-31T12:50:25;6.85;;;6.55;;
16634;SDS011;8431;52.458;9.998;2023-07-31T12:52:52;7.15;;;6.75;;
16634;SDS011;8431;52.458;9.998;2023-07-31T12:55:21;7.10;;;6.60;;
16634;SDS011;8431;52.458;9.998;2023-07-31T12:57:48;6.45;;;6.15;;
16634;SDS011;8431;52.458;9.998;2023-07-31T13:00:16;9.52;;;6.53;;
16634;SDS011;8431;52.458;9.998;2023-07-31T13:02:43;6.53;;;6.22;;
16634;SDS011;8431;52.458;9.998;2023-07-31T13:05:10;7.20;;;6.80;;
16634;SDS011;8431;52.458;9.998;2023-07-31T13:07:38;6.97;;;6.70;;
16634;SDS011;8431;52.458;9.998;2023-07-31T13:10:05;7.25;;;6.95;;
16634;SDS011;8431;52.458;9.998;2023-07-31T13:12:34;6.63;;;6.20;;
16634;SDS011;8431;52.458;9.998;2023-07-31T13:15:01;6.57;;;6.28;;
16634;SDS011;8431;52.458;9.998;2023-07-31T13:17:29;6.95;;;6.50;;
16634;SDS011;8431;52.458;9.998;2023-07-31T13:19:56;6.25;;;6.05;;
16634;SDS011;8431;52.458;9.998;2023-07-31T13:22:23;6.75;;;6.45;;
16634;SDS011;8431;52.458;9.998;2023-07-31T13:24:50;6.13;;;5.93;;
16634;SDS011;8431;52.458;9.998;2023-07-31T13:27:17;6.25;;;5.95;;
16634;SDS011;8431;52.458;9.998;2023-07-31T13:29:48;6.70;;;6.35;;
16634;SDS011;8431;52.458;9.998;2023-07-31T13:32:15;6.78;;;6.53;;
16634;SDS011;8431;52.458;9.998;2023-07-31T13:34:42;6.97;;;6.57;;
16634;SDS011;8431;52.458;9.998;2023-07-31T13:37:09;6.07;;;5.88;;
16634;SDS011;8431;52.458;9.998;2023-07-31T13:39:36;6.22;;;5.93;;
16634;SDS011;8431;52.458;9.998;2023-07-31T13:42:04;7.13;;;6.90;;
16634;SDS011;8431;52.458;9.998;2023-07-31T13:44:31;6.85;;;6.57;;
16634;SDS011;8431;52.458;9.998;2023-07-31T13:47:00;7.88;;;7.57;;
16634;SDS011;8431;52.458;9.998;2023-07-31T13:49:27;6.88;;;6.68;;
16634;SDS011;8431;52.458;9.998;2023-07-31T13:51:54;7.40;;;7.20;;
16634;SDS011;8431;52.458;9.998;2023-07-31T13:54:21;7.07;;;6.78;;
16634;SDS011;8431;52.458;9.998;2023-07-31T13:56:49;7.30;;;7.05;;
16634;SDS011;8431;52.458;9.998;2023-07-31T13:59:16;7.45;;;7.15;;
16634;SDS011;8431;52.458;9.998;2023-07-31T14:01:43;7.15;;;6.93;;
16634;SDS011;8431;52.458;9.998;2023-07-31T14:04:12;7.40;;;7.10;;
16634;SDS011;8431;52.458;9.998;2023-07-31T14:06:39;7.00;;;6.70;;
16634;SDS011;8431;52.458;9.998;2023-07-31T14:09:06;6.95;;;6.75;;
16634;SDS011;8431;52.458;9.998;2023-07-31T14:11:33;7.57;;;7.18;;
16634;SDS011;8431;52.458;9.998;2023-07-31T14:14:00;7.85;;;7.35;;
16634;SDS011;8431;52.458;9.998;2023-07-31T14:16:28;7.53;;;7.22;;
16634;SDS011;8431;52.458;9.998;2023-07-31T14:18:55;7.10;;;6.65;;
16634;SDS011;8431;52.458;9.998;2023-07-31T14:21:25;7.15;;;6.95;;
16634;SDS011;8431;52.458;9.998;2023-07-31T14:23:52;6.82;;;6.63;;
16634;SDS011;8431;52.458;9.998;2023-07-31T14:26:19;7.45;;;7.20;;
16634;SDS011;8431;52.458;9.998;2023-07-31T14:28:46;7.97;;;7.68;;
16634;SDS011;8431;52.458;9.998;2023-07-31T14:31:13;7.05;;;6.78;;
16634;SDS011;8431;52.458;9.998;2023-07-31T14:33:40;7.45;;;7.20;;
16634;SDS011;8431;52.458;9.998;2023-07-31T14:36:10;7.55;;;7.25;;
16634;SDS011;8431;52.458;9.998;2023-07-31T14:38:39;7.90;;;7.60;;
16634;SDS011;8431;52.458;9.998;2023-07-31T14:41:05;7.18;;;6.93;;
16634;SDS011;8431;52.458;9.998;2023-07-31T14:43:32;7.47;;;7.15;;
16634;SDS011;8431;52.458;9.998;2023-07-31T14:45:59;7.43;;;7.22;;
16634;SDS011;8431;52.458;9.998;2023-07-31T14:48:26;6.60;;;6.40;;
16634;SDS011;8431;52.458;9.998;2023-07-31T14:50:54;6.47;;;6.28;;
16634;SDS011;8431;52.458;9.998;2023-07-31T14:53:21;7.35;;;7.15;;
16634;SDS011;8431;52.458;9.998;2023-07-31T14:55:49;6.85;;;6.43;;
16634;SDS011;8431;52.458;9.998;2023-07-31T14:58:16;8.38;;;7.97;;
16634;SDS011;8431;52.458;9.998;2023-07-31T15:00:43;7.78;;;7.57;;
16634;SDS011;8431;52.458;9.998;2023-07-31T15:03:10;7.75;;;7.35;;
16634;SDS011;8431;52.458;9.998;2023-07-31T15:05:37;7.85;;;7.55;;
16634;SDS011;8431;52.458;9.998;2023-07-31T15:08:04;7.68;;;7.18;;
16634;SDS011;8431;52.458;9.998;2023-07-31T15:10:31;7.25;;;6.95;;
16634;SDS011;8431;52.458;9.998;2023-07-31T15:13:00;7.85;;;7.53;;
16634;SDS011;8431;52.458;9.998;2023-07-31T15:15:27;8.45;;;8.02;;
16634;SDS011;8431;52.458;9.998;2023-07-31T15:17:54;8.90;;;8.50;;
16634;SDS011;8431;52.458;9.998;2023-07-31T15:20:21;7.65;;;7.35;;
16634;SDS011;8431;52.458;9.998;2023-07-31T15:22:48;8.23;;;7.82;;
16634;SDS011;8431;52.458;9.998;2023-07-31T15:25:15;8.45;;;8.15;;
16634;SDS011;8431;52.458;9.998;2023-07-31T15:27:43;8.68;;;8.27;;
16634;SDS011;8431;52.458;9.998;2023-07-31T15:30:12;8.00;;;7.70;;
16634;SDS011;8431;52.458;9.998;2023-07-31T15:32:39;7.68;;;7.10;;
16634;SDS011;8431;52.458;9.998;2023-07-31T15:35:06;8.07;;;7.68;;